Friday, November 24, 2017, 8:14 AM EST
Back to Local

KWST, Westerly State Airport

Location: Westerly, RI, United States Lat: 41.35
Local Time: 8:14 AM EST (13:14 GMT) Lon: -71.8
Time Zone: US/Eastern Elev: 82 ft

Show me the last for .
Show Decoded

2017-11-24 07:53 METAR KWST 241253Z AUTO 00000KT 8SM CLR 00/M02 A3005 RMK AO2 SLP177 T00001017 =
2017-11-24 06:53 METAR KWST 241153Z AUTO 00000KT 6SM BR CLR M03/M04 A3005 RMK AO2 SLP175 I1000
                 I6000 T10331039 11022 21033 53010 =
2017-11-24 05:53 METAR KWST 241053Z AUTO 00000KT 8SM CLR M03/M04 A3003 RMK AO2 SLP169 I1000
                 T10331039 =
2017-11-24 04:53 METAR KWST 240953Z AUTO 00000KT 9SM CLR M03/M04 A3002 RMK AO2 SLP166 I1000
                 T10331039 =
2017-11-24 03:53 METAR KWST 240853Z AUTO 00000KT 9SM CLR M03/M04 A3002 RMK AO2 SLP165 I1000 I3000
                 T10281039 51001 =
2017-11-24 02:53 METAR KWST 240753Z AUTO 00000KT 10SM CLR M03/M03 A3001 RMK AO2 SLP163 T10281033
                 =
2017-11-24 01:53 METAR KWST 240653Z AUTO 00000KT 10SM CLR M03/M03 A3002 RMK AO2 SLP166 T10281033
                 =
2017-11-24 00:53 METAR KWST 240553Z AUTO 00000KT 10SM SCT100 M02/M03 A3001 RMK AO2 SLP164
                 T10221033 10000 21022 58001 =
2017-11-23 23:53 METAR KWST 240453Z AUTO 00000KT 10SM BKN100 M02/M03 A3002 RMK AO2 SLP166
                 T10171033 400721022 =
2017-11-23 22:53 METAR KWST 240353Z AUTO 00000KT 10SM SCT100 M01/M03 A3002 RMK AO2 SLP165
                 T10111033 =
2017-11-23 21:53 METAR KWST 240253Z AUTO 00000KT 10SM CLR M01/M03 A3002 RMK AO2 SLP165 T10111028
                 53007 =
2017-11-23 20:53 METAR KWST 240153Z AUTO 00000KT 10SM CLR M01/M02 A3000 RMK AO2 SLP160 T10061022
                 =
2017-11-23 19:53 METAR KWST 240053Z AUTO 00000KT 10SM CLR M01/M03 A3000 RMK AO2 SLP160 T10061033
                 =
2017-11-23 18:53 METAR KWST 232353Z AUTO 00000KT 10SM CLR M01/M04 A3000 RMK AO2 SLP158 T10061039
                 10072 21006 51002 =
2017-11-23 17:53 METAR KWST 232253Z AUTO 00000KT 10SM CLR 01/M04 A2999 RMK AO2 SLP157 T00061044 =
2017-11-23 16:53 METAR KWST 232153Z AUTO 00000KT 10SM CLR 03/M03 A3000 RMK AO2 SLP158 T00331033 =
2017-11-23 15:53 METAR KWST 232053Z AUTO 00000KT 10SM CLR 06/M06 A2999 RMK AO2 SLP155 T00611061
                 56009 =
2017-11-23 14:53 METAR KWST 231953Z AUTO VRB05KT 10SM CLR 07/M05 A2999 RMK AO2 SLP157 T00671050 =
2017-11-23 13:53 METAR KWST 231853Z AUTO 23004KT 10SM CLR 07/M05 A3000 RMK AO2 SLP159 T00721050 =
2017-11-23 12:53 METAR KWST 231753Z AUTO VRB04KT 10SM CLR 07/M06 A3002 RMK AO2 SLP164 T00671056
                 10067 21022 58018 =
2017-11-23 11:53 METAR KWST 231653Z AUTO 32004KT 10SM CLR 06/M05 A3003 RMK AO2 SLP168 T00561050 =
2017-11-23 10:53 METAR KWST 231553Z AUTO 28007KT 10SM CLR 04/M05 A3006 RMK AO2 SLP180 T00441050 =
2017-11-23 09:53 METAR KWST 231453Z AUTO VRB03KT 10SM CLR 03/M05 A3007 RMK AO2 SLP182 T00331050
                 50005 =
2017-11-23 08:53 METAR KWST 231353Z AUTO VRB04KT 10SM CLR 02/M04 A3007 RMK AO2 SLP183 T00221044 =

Support USWX by starting your Amazon purchase here.